sensor_id;sensor_type;location;lat;lon;timestamp;temperature;humidity
28374;DHT22;15616;40.148;-102.718;2023-04-15T00:00:03;20.60;47.10
28374;DHT22;15616;40.148;-102.718;2023-04-15T00:02:28;20.60;47.10
28374;DHT22;15616;40.148;-102.718;2023-04-15T00:04:54;20.60;47.00
28374;DHT22;15616;40.148;-102.718;2023-04-15T00:07:20;20.60;47.10
28374;DHT22;15616;40.148;-102.718;2023-04-15T00:09:45;20.60;47.10
28374;DHT22;15616;40.148;-102.718;2023-04-15T00:12:11;20.60;47.10
28374;DHT22;15616;40.148;-102.718;2023-04-15T00:14:37;20.60;47.10
28374;DHT22;15616;40.148;-102.718;2023-04-15T00:17:03;20.60;47.10
28374;DHT22;15616;40.148;-102.718;2023-04-15T00:19:30;20.60;47.10
28374;DHT22;15616;40.148;-102.718;2023-04-15T00:21:55;20.60;47.10
28374;DHT22;15616;40.148;-102.718;2023-04-15T00:24:22;20.60;47.10
28374;DHT22;15616;40.148;-102.718;2023-04-15T00:26:47;20.60;47.20
28374;DHT22;15616;40.148;-102.718;2023-04-15T00:29:13;20.60;47.20
28374;DHT22;15616;40.148;-102.718;2023-04-15T00:31:39;20.50;47.20
28374;DHT22;15616;40.148;-102.718;2023-04-15T00:34:06;20.60;47.20
28374;DHT22;15616;40.148;-102.718;2023-04-15T00:36:32;20.60;47.20
28374;DHT22;15616;40.148;-102.718;2023-04-15T00:38:59;20.60;47.20
28374;DHT22;15616;40.148;-102.718;2023-04-15T00:41:25;20.60;47.20
28374;DHT22;15616;40.148;-102.718;2023-04-15T00:43:51;20.60;47.20
28374;DHT22;15616;40.148;-102.718;2023-04-15T00:46:17;20.60;47.20
28374;DHT22;15616;40.148;-102.718;2023-04-15T00:48:45;20.50;47.10
28374;DHT22;15616;40.148;-102.718;2023-04-15T00:51:11;20.50;47.20
28374;DHT22;15616;40.148;-102.718;2023-04-15T00:53:37;20.60;47.20
28374;DHT22;15616;40.148;-102.718;2023-04-15T00:56:03;20.50;47.20
28374;DHT22;15616;40.148;-102.718;2023-04-15T00:58:29;20.50;47.20
28374;DHT22;15616;40.148;-102.718;2023-04-15T01:00:54;20.50;47.20
28374;DHT22;15616;40.148;-102.718;2023-04-15T01:03:20;20.50;47.20
28374;DHT22;15616;40.148;-102.718;2023-04-15T01:05:46;20.50;47.20
28374;DHT22;15616;40.148;-102.718;2023-04-15T01:08:12;20.50;47.30
28374;DHT22;15616;40.148;-102.718;2023-04-15T01:10:38;20.50;47.30
28374;DHT22;15616;40.148;-102.718;2023-04-15T01:13:04;20.50;47.30
28374;DHT22;15616;40.148;-102.718;2023-04-15T01:15:29;20.50;47.30
28374;DHT22;15616;40.148;-102.718;2023-04-15T01:17:56;20.50;47.30
28374;DHT22;15616;40.148;-102.718;2023-04-15T01:20:23;20.50;47.30
28374;DHT22;15616;40.148;-102.718;2023-04-15T01:22:48;20.40;47.30
28374;DHT22;15616;40.148;-102.718;2023-04-15T01:25:16;20.50;47.40
28374;DHT22;15616;40.148;-102.718;2023-04-15T01:27:42;20.40;47.40
28374;DHT22;15616;40.148;-102.718;2023-04-15T01:30:09;20.40;47.40
28374;DHT22;15616;40.148;-102.718;2023-04-15T01:32:35;20.40;47.40
28374;DHT22;15616;40.148;-102.718;2023-04-15T01:35:01;20.40;47.30
28374;DHT22;15616;40.148;-102.718;2023-04-15T01:37:27;20.40;47.40
28374;DHT22;15616;40.148;-102.718;2023-04-15T01:39:53;20.40;47.40
28374;DHT22;15616;40.148;-102.718;2023-04-15T01:42:20;20.40;47.40
28374;DHT22;15616;40.148;-102.718;2023-04-15T01:44:46;20.40;47.40
28374;DHT22;15616;40.148;-102.718;2023-04-15T01:47:12;20.40;47.40
28374;DHT22;15616;40.148;-102.718;2023-04-15T01:49:37;20.40;47.40
28374;DHT22;15616;40.148;-102.718;2023-04-15T01:52:03;20.40;47.40
28374;DHT22;15616;40.148;-102.718;2023-04-15T01:54:29;20.40;47.40
28374;DHT22;15616;40.148;-102.718;2023-04-15T01:56:55;20.40;47.40
28374;DHT22;15616;40.148;-102.718;2023-04-15T01:59:21;20.40;47.40
28374;DHT22;15616;40.148;-102.718;2023-04-15T02:01:47;20.40;47.40
28374;DHT22;15616;40.148;-102.718;2023-04-15T02:04:13;20.40;47.40
28374;DHT22;15616;40.148;-102.718;2023-04-15T02:06:41;20.40;47.40
28374;DHT22;15616;40.148;-102.718;2023-04-15T02:09:08;20.40;47.40
28374;DHT22;15616;40.148;-102.718;2023-04-15T02:11:34;20.40;47.40
28374;DHT22;15616;40.148;-102.718;2023-04-15T02:14:01;20.40;47.40
28374;DHT22;15616;40.148;-102.718;2023-04-15T02:16:29;20.40;47.40
28374;DHT22;15616;40.148;-102.718;2023-04-15T02:18:55;20.40;47.40
28374;DHT22;15616;40.148;-102.718;2023-04-15T02:21:20;20.40;47.40
28374;DHT22;15616;40.148;-102.718;2023-04-15T02:23:47;20.40;47.50
28374;DHT22;15616;40.148;-102.718;2023-04-15T02:26:12;20.30;47.50
28374;DHT22;15616;40.148;-102.718;2023-04-15T02:28:38;20.40;47.50
28374;DHT22;15616;40.148;-102.718;2023-04-15T02:31:04;20.30;47.50
28374;DHT22;15616;40.148;-102.718;2023-04-15T02:33:30;20.30;47.50
28374;DHT22;15616;40.148;-102.718;2023-04-15T02:35:56;20.40;47.50
28374;DHT22;15616;40.148;-102.718;2023-04-15T02:38:23;20.30;47.50
28374;DHT22;15616;40.148;-102.718;2023-04-15T02:40:49;20.40;47.50
28374;DHT22;15616;40.148;-102.718;2023-04-15T02:43:15;20.30;47.50
28374;DHT22;15616;40.148;-102.718;2023-04-15T02:45:44;20.40;47.50
28374;DHT22;15616;40.148;-102.718;2023-04-15T02:48:11;20.30;47.50
28374;DHT22;15616;40.148;-102.718;2023-04-15T02:50:37;20.30;47.50
28374;DHT22;15616;40.148;-102.718;2023-04-15T02:53:05;20.30;47.50
28374;DHT22;15616;40.148;-102.718;2023-04-15T02:55:31;20.30;47.50
28374;DHT22;15616;40.148;-102.718;2023-04-15T02:57:57;20.30;47.60
28374;DHT22;15616;40.148;-102.718;2023-04-15T03:00:24;20.30;47.60
28374;DHT22;15616;40.148;-102.718;2023-04-15T03:02:50;20.30;48.30
28374;DHT22;15616;40.148;-102.718;2023-04-15T03:05:21;20.30;47.60
28374;DHT22;15616;40.148;-102.718;2023-04-15T03:07:49;20.30;47.60
28374;DHT22;15616;40.148;-102.718;2023-04-15T03:10:14;20.30;47.60
28374;DHT22;15616;40.148;-102.718;2023-04-15T03:12:40;20.30;47.70
28374;DHT22;15616;40.148;-102.718;2023-04-15T03:15:06;20.30;47.70
28374;DHT22;15616;40.148;-102.718;2023-04-15T03:17:32;20.30;47.70
28374;DHT22;15616;40.148;-102.718;2023-04-15T03:19:58;20.30;47.60
28374;DHT22;15616;40.148;-102.718;2023-04-15T03:22:23;20.30;47.60
28374;DHT22;15616;40.148;-102.718;2023-04-15T03:24:50;20.30;47.70
28374;DHT22;15616;40.148;-102.718;2023-04-15T03:27:16;20.30;48.40
28374;DHT22;15616;40.148;-102.718;2023-04-15T03:29:42;20.30;47.70
28374;DHT22;15616;40.148;-102.718;2023-04-15T03:32:07;20.30;47.70
28374;DHT22;15616;40.148;-102.718;2023-04-15T03:34:33;20.30;47.60
28374;DHT22;15616;40.148;-102.718;2023-04-15T03:36:59;20.30;47.70
28374;DHT22;15616;40.148;-102.718;2023-04-15T03:39:24;20.30;47.70
28374;DHT22;15616;40.148;-102.718;2023-04-15T03:41:50;20.30;47.70
28374;DHT22;15616;40.148;-102.718;2023-04-15T03:44:16;20.20;47.60
28374;DHT22;15616;40.148;-102.718;2023-04-15T03:46:41;20.30;47.70
28374;DHT22;15616;40.148;-102.718;2023-04-15T03:49:07;20.30;47.70
28374;DHT22;15616;40.148;-102.718;2023-04-15T03:51:33;20.30;47.70
28374;DHT22;15616;40.148;-102.718;2023-04-15T03:53:59;20.30;47.70
28374;DHT22;15616;40.148;-102.718;2023-04-15T03:56:24;20.30;47.60
28374;DHT22;15616;40.148;-102.718;2023-04-15T03:58:50;20.30;47.70
28374;DHT22;15616;40.148;-102.718;2023-04-15T04:01:16;20.30;47.70
28374;DHT22;15616;40.148;-102.718;2023-04-15T04:03:42;20.30;47.70
28374;DHT22;15616;40.148;-102.718;2023-04-15T04:06:07;20.30;47.70
28374;DHT22;15616;40.148;-102.718;2023-04-15T04:08:33;20.30;47.70
28374;DHT22;15616;40.148;-102.718;2023-04-15T04:10:59;20.30;47.70
28374;DHT22;15616;40.148;-102.718;2023-04-15T04:13:25;20.30;47.70
28374;DHT22;15616;40.148;-102.718;2023-04-15T04:15:50;20.30;47.80
28374;DHT22;15616;40.148;-102.718;2023-04-15T04:18:16;20.30;47.70
28374;DHT22;15616;40.148;-102.718;2023-04-15T04:20:42;20.30;47.70
28374;DHT22;15616;40.148;-102.718;2023-04-15T04:23:07;20.30;47.80
28374;DHT22;15616;40.148;-102.718;2023-04-15T04:25:33;20.30;47.70
28374;DHT22;15616;40.148;-102.718;2023-04-15T04:27:59;20.30;47.70
28374;DHT22;15616;40.148;-102.718;2023-04-15T04:30:25;20.30;47.80
28374;DHT22;15616;40.148;-102.718;2023-04-15T04:32:50;20.30;47.80
28374;DHT22;15616;40.148;-102.718;2023-04-15T04:35:16;20.30;47.70
28374;DHT22;15616;40.148;-102.718;2023-04-15T04:37:42;20.30;47.80
28374;DHT22;15616;40.148;-102.718;2023-04-15T04:40:07;20.30;47.70
28374;DHT22;15616;40.148;-102.718;2023-04-15T04:42:34;20.20;47.70
28374;DHT22;15616;40.148;-102.718;2023-04-15T04:44:59;20.30;47.80
28374;DHT22;15616;40.148;-102.718;2023-04-15T04:47:25;20.20;47.70
28374;DHT22;15616;40.148;-102.718;2023-04-15T04:49:51;20.30;47.80
28374;DHT22;15616;40.148;-102.718;2023-04-15T04:52:16;20.30;47.80
28374;DHT22;15616;40.148;-102.718;2023-04-15T04:54:42;20.30;47.80
28374;DHT22;15616;40.148;-102.718;2023-04-15T04:57:08;20.30;47.80
28374;DHT22;15616;40.148;-102.718;2023-04-15T04:59:33;20.20;47.80
28374;DHT22;15616;40.148;-102.718;2023-04-15T05:01:59;20.30;47.80
28374;DHT22;15616;40.148;-102.718;2023-04-15T05:04:25;20.30;47.80
28374;DHT22;15616;40.148;-102.718;2023-04-15T05:06:51;20.30;47.80
28374;DHT22;15616;40.148;-102.718;2023-04-15T05:09:17;20.30;47.80
28374;DHT22;15616;40.148;-102.718;2023-04-15T05:11:43;20.30;47.80
28374;DHT22;15616;40.148;-102.718;2023-04-15T05:14:09;20.20;47.80
28374;DHT22;15616;40.148;-102.718;2023-04-15T05:16:34;20.20;47.80
28374;DHT22;15616;40.148;-102.718;2023-04-15T05:19:00;20.30;47.80
28374;DHT22;15616;40.148;-102.718;2023-04-15T05:21:26;20.30;47.80
28374;DHT22;15616;40.148;-102.718;2023-04-15T05:23:52;20.20;47.80
28374;DHT22;15616;40.148;-102.718;2023-04-15T05:26:17;20.30;47.80
28374;DHT22;15616;40.148;-102.718;2023-04-15T05:28:43;20.30;47.80
28374;DHT22;15616;40.148;-102.718;2023-04-15T05:31:09;20.30;47.80
28374;DHT22;15616;40.148;-102.718;2023-04-15T05:33:35;20.30;47.80
28374;DHT22;15616;40.148;-102.718;2023-04-15T05:36:01;20.30;47.80
28374;DHT22;15616;40.148;-102.718;2023-04-15T05:38:26;20.30;47.80
28374;DHT22;15616;40.148;-102.718;2023-04-15T05:40:52;20.30;47.80
28374;DHT22;15616;40.148;-102.718;2023-04-15T05:43:18;20.30;47.80
28374;DHT22;15616;40.148;-102.718;2023-04-15T05:45:44;20.30;47.90
28374;DHT22;15616;40.148;-102.718;2023-04-15T05:48:10;20.30;47.90
28374;DHT22;15616;40.148;-102.718;2023-04-15T05:50:36;20.30;47.90
28374;DHT22;15616;40.148;-102.718;2023-04-15T05:53:02;20.30;48.00
28374;DHT22;15616;40.148;-102.718;2023-04-15T05:55:27;20.30;48.00
28374;DHT22;15616;40.148;-102.718;2023-04-15T05:57:53;20.30;48.00
28374;DHT22;15616;40.148;-102.718;2023-04-15T06:00:19;20.30;48.00
28374;DHT22;15616;40.148;-102.718;2023-04-15T06:02:45;20.30;48.00
28374;DHT22;15616;40.148;-102.718;2023-04-15T06:05:11;20.30;48.00
28374;DHT22;15616;40.148;-102.718;2023-04-15T06:07:37;20.30;48.00
28374;DHT22;15616;40.148;-102.718;2023-04-15T06:10:03;20.30;48.00
28374;DHT22;15616;40.148;-102.718;2023-04-15T06:12:29;20.40;48.00
28374;DHT22;15616;40.148;-102.718;2023-04-15T06:14:55;20.40;48.00
28374;DHT22;15616;40.148;-102.718;2023-04-15T06:17:21;20.40;48.00
28374;DHT22;15616;40.148;-102.718;2023-04-15T06:19:46;20.40;48.00
28374;DHT22;15616;40.148;-102.718;2023-04-15T06:22:13;20.30;47.90
28374;DHT22;15616;40.148;-102.718;2023-04-15T06:24:39;20.40;48.00
28374;DHT22;15616;40.148;-102.718;2023-04-15T06:27:04;20.40;48.00
28374;DHT22;15616;40.148;-102.718;2023-04-15T06:29:30;20.30;47.90
28374;DHT22;15616;40.148;-102.718;2023-04-15T06:31:56;20.40;48.00
28374;DHT22;15616;40.148;-102.718;2023-04-15T06:34:21;20.30;48.00
28374;DHT22;15616;40.148;-102.718;2023-04-15T06:36:47;20.40;48.00
28374;DHT22;15616;40.148;-102.718;2023-04-15T06:39:13;20.30;48.00
28374;DHT22;15616;40.148;-102.718;2023-04-15T06:41:38;20.40;48.10
28374;DHT22;15616;40.148;-102.718;2023-04-15T06:44:05;20.30;48.00
28374;DHT22;15616;40.148;-102.718;2023-04-15T06:46:30;20.30;48.00
28374;DHT22;15616;40.148;-102.718;2023-04-15T06:48:56;20.40;48.10
28374;DHT22;15616;40.148;-102.718;2023-04-15T06:51:22;20.30;48.10
28374;DHT22;15616;40.148;-102.718;2023-04-15T06:53:48;20.30;48.10
28374;DHT22;15616;40.148;-102.718;2023-04-15T06:56:14;20.30;48.10
28374;DHT22;15616;40.148;-102.718;2023-04-15T06:58:40;20.40;48.10
28374;DHT22;15616;40.148;-102.718;2023-04-15T07:01:05;20.40;48.10
28374;DHT22;15616;40.148;-102.718;2023-04-15T07:03:31;20.30;48.10
28374;DHT22;15616;40.148;-102.718;2023-04-15T07:05:57;20.30;48.10
28374;DHT22;15616;40.148;-102.718;2023-04-15T07:08:23;20.40;48.10
28374;DHT22;15616;40.148;-102.718;2023-04-15T07:10:48;20.30;48.10
28374;DHT22;15616;40.148;-102.718;2023-04-15T07:13:14;20.40;48.10
28374;DHT22;15616;40.148;-102.718;2023-04-15T07:15:40;20.40;48.10
28374;DHT22;15616;40.148;-102.718;2023-04-15T07:18:06;20.30;48.10
28374;DHT22;15616;40.148;-102.718;2023-04-15T07:20:31;20.40;48.10
28374;DHT22;15616;40.148;-102.718;2023-04-15T07:22:57;20.40;48.10
28374;DHT22;15616;40.148;-102.718;2023-04-15T07:25:23;20.40;48.10
28374;DHT22;15616;40.148;-102.718;2023-04-15T07:27:49;20.40;48.10
28374;DHT22;15616;40.148;-102.718;2023-04-15T07:30:15;20.40;48.10
28374;DHT22;15616;40.148;-102.718;2023-04-15T07:32:41;20.40;48.10
28374;DHT22;15616;40.148;-102.718;2023-04-15T07:35:07;20.40;48.10
28374;DHT22;15616;40.148;-102.718;2023-04-15T07:37:34;20.40;48.10
28374;DHT22;15616;40.148;-102.718;2023-04-15T07:40:00;20.40;48.10
28374;DHT22;15616;40.148;-102.718;2023-04-15T07:42:26;20.40;48.10
28374;DHT22;15616;40.148;-102.718;2023-04-15T07:44:52;20.40;48.10
28374;DHT22;15616;40.148;-102.718;2023-04-15T07:47:17;20.40;48.10
28374;DHT22;15616;40.148;-102.718;2023-04-15T07:49:43;20.40;48.10
28374;DHT22;15616;40.148;-102.718;2023-04-15T07:52:09;20.40;48.10
28374;DHT22;15616;40.148;-102.718;2023-04-15T07:54:35;20.40;48.10
28374;DHT22;15616;40.148;-102.718;2023-04-15T07:57:01;20.40;48.10
28374;DHT22;15616;40.148;-102.718;2023-04-15T07:59:28;20.40;48.10
28374;DHT22;15616;40.148;-102.718;2023-04-15T08:01:55;20.40;48.20
28374;DHT22;15616;40.148;-102.718;2023-04-15T08:04:21;20.40;48.10
28374;DHT22;15616;40.148;-102.718;2023-04-15T08:06:47;20.40;48.10
28374;DHT22;15616;40.148;-102.718;2023-04-15T08:09:14;20.50;48.10
28374;DHT22;15616;40.148;-102.718;2023-04-15T08:11:40;20.50;48.10
28374;DHT22;15616;40.148;-102.718;2023-04-15T08:14:06;20.50;48.10
28374;DHT22;15616;40.148;-102.718;2023-04-15T08:16:32;20.40;48.00
28374;DHT22;15616;40.148;-102.718;2023-04-15T08:18:58;20.40;48.00
28374;DHT22;15616;40.148;-102.718;2023-04-15T08:21:24;20.40;48.10
28374;DHT22;15616;40.148;-102.718;2023-04-15T08:23:50;20.50;48.10
28374;DHT22;15616;40.148;-102.718;2023-04-15T08:26:16;20.50;48.10
28374;DHT22;15616;40.148;-102.718;2023-04-15T08:28:42;20.50;48.10
28374;DHT22;15616;40.148;-102.718;2023-04-15T08:31:08;20.50;48.10
28374;DHT22;15616;40.148;-102.718;2023-04-15T08:33:34;20.50;48.10
28374;DHT22;15616;40.148;-102.718;2023-04-15T08:36:00;20.50;48.00
28374;DHT22;15616;40.148;-102.718;2023-04-15T08:38:26;20.50;48.00
28374;DHT22;15616;40.148;-102.718;2023-04-15T08:40:51;20.50;48.00
28374;DHT22;15616;40.148;-102.718;2023-04-15T08:43:19;20.50;47.90
28374;DHT22;15616;40.148;-102.718;2023-04-15T08:45:46;20.50;47.90
28374;DHT22;15616;40.148;-102.718;2023-04-15T08:48:14;20.50;47.90
28374;DHT22;15616;40.148;-102.718;2023-04-15T08:50:43;20.50;47.90
28374;DHT22;15616;40.148;-102.718;2023-04-15T08:53:10;20.60;47.90
28374;DHT22;15616;40.148;-102.718;2023-04-15T08:55:38;20.50;47.80
28374;DHT22;15616;40.148;-102.718;2023-04-15T08:58:06;20.60;47.90
28374;DHT22;15616;40.148;-102.718;2023-04-15T09:00:32;20.60;47.90
28374;DHT22;15616;40.148;-102.718;2023-04-15T09:02:58;20.60;48.60
28374;DHT22;15616;40.148;-102.718;2023-04-15T09:05:24;20.60;47.80
28374;DHT22;15616;40.148;-102.718;2023-04-15T09:07:50;20.60;47.80
28374;DHT22;15616;40.148;-102.718;2023-04-15T09:10:16;20.60;47.70
28374;DHT22;15616;40.148;-102.718;2023-04-15T09:12:42;20.60;47.70
28374;DHT22;15616;40.148;-102.718;2023-04-15T09:15:10;20.60;47.60
28374;DHT22;15616;40.148;-102.718;2023-04-15T09:17:40;20.60;47.60
28374;DHT22;15616;40.148;-102.718;2023-04-15T09:20:10;20.60;47.50
28374;DHT22;15616;40.148;-102.718;2023-04-15T09:22:38;20.60;47.50
28374;DHT22;15616;40.148;-102.718;2023-04-15T09:25:16;20.70;47.50
28374;DHT22;15616;40.148;-102.718;2023-04-15T09:27:51;20.60;47.50
28374;DHT22;15616;40.148;-102.718;2023-04-15T09:30:17;20.70;47.50
28374;DHT22;15616;40.148;-102.718;2023-04-15T09:32:49;20.70;47.50
28374;DHT22;15616;40.148;-102.718;2023-04-15T09:35:15;20.70;47.50
28374;DHT22;15616;40.148;-102.718;2023-04-15T09:37:41;20.70;47.50
28374;DHT22;15616;40.148;-102.718;2023-04-15T09:40:07;20.70;47.50
28374;DHT22;15616;40.148;-102.718;2023-04-15T09:42:34;20.70;47.50
28374;DHT22;15616;40.148;-102.718;2023-04-15T09:45:08;20.70;47.50
28374;DHT22;15616;40.148;-102.718;2023-04-15T09:47:36;20.70;47.40
28374;DHT22;15616;40.148;-102.718;2023-04-15T09:50:01;20.80;47.40
28374;DHT22;15616;40.148;-102.718;2023-04-15T09:52:28;20.80;47.30
28374;DHT22;15616;40.148;-102.718;2023-04-15T09:54:54;20.80;47.30
28374;DHT22;15616;40.148;-102.718;2023-04-15T09:57:23;20.80;47.20
28374;DHT22;15616;40.148;-102.718;2023-04-15T09:59:49;20.80;47.20
28374;DHT22;15616;40.148;-102.718;2023-04-15T10:02:15;20.80;47.30
28374;DHT22;15616;40.148;-102.718;2023-04-15T10:04:42;20.80;47.30
28374;DHT22;15616;40.148;-102.718;2023-04-15T10:07:09;20.80;47.20
28374;DHT22;15616;40.148;-102.718;2023-04-15T10:09:36;20.80;47.20
28374;DHT22;15616;40.148;-102.718;2023-04-15T10:12:03;20.80;47.20
28374;DHT22;15616;40.148;-102.718;2023-04-15T10:14:31;20.80;47.30
28374;DHT22;15616;40.148;-102.718;2023-04-15T10:16:57;20.80;47.20
28374;DHT22;15616;40.148;-102.718;2023-04-15T10:19:23;20.80;47.30
28374;DHT22;15616;40.148;-102.718;2023-04-15T10:21:52;20.80;47.20
28374;DHT22;15616;40.148;-102.718;2023-04-15T10:24:18;20.80;47.20
28374;DHT22;15616;40.148;-102.718;2023-04-15T10:26:44;20.80;47.20
28374;DHT22;15616;40.148;-102.718;2023-04-15T10:29:09;20.80;47.30
28374;DHT22;15616;40.148;-102.718;2023-04-15T10:31:35;20.80;47.20
28374;DHT22;15616;40.148;-102.718;2023-04-15T10:34:02;20.80;47.20
28374;DHT22;15616;40.148;-102.718;2023-04-15T10:36:31;20.80;47.20
28374;DHT22;15616;40.148;-102.718;2023-04-15T10:38:56;20.80;47.20
28374;DHT22;15616;40.148;-102.718;2023-04-15T10:41:26;20.80;47.30
28374;DHT22;15616;40.148;-102.718;2023-04-15T10:43:59;20.80;47.30
28374;DHT22;15616;40.148;-102.718;2023-04-15T10:46:38;20.80;47.20
28374;DHT22;15616;40.148;-102.718;2023-04-15T10:49:08;20.80;47.30
28374;DHT22;15616;40.148;-102.718;2023-04-15T10:51:36;20.90;47.30
28374;DHT22;15616;40.148;-102.718;2023-04-15T10:54:07;20.90;47.30
28374;DHT22;15616;40.148;-102.718;2023-04-15T10:56:33;20.90;47.30
28374;DHT22;15616;40.148;-102.718;2023-04-15T10:58:59;20.80;47.30
28374;DHT22;15616;40.148;-102.718;2023-04-15T11:04:10;20.90;47.30
28374;DHT22;15616;40.148;-102.718;2023-04-15T11:06:42;20.90;47.30
28374;DHT22;15616;40.148;-102.718;2023-04-15T11:09:11;20.90;47.30
28374;DHT22;15616;40.148;-102.718;2023-04-15T11:12:07;20.90;47.30
28374;DHT22;15616;40.148;-102.718;2023-04-15T11:14:36;20.90;47.30
28374;DHT22;15616;40.148;-102.718;2023-04-15T11:17:04;20.90;47.30
28374;DHT22;15616;40.148;-102.718;2023-04-15T11:19:36;20.90;47.30
28374;DHT22;15616;40.148;-102.718;2023-04-15T11:22:07;21.00;47.30
28374;DHT22;15616;40.148;-102.718;2023-04-15T11:24:32;21.00;47.30
28374;DHT22;15616;40.148;-102.718;2023-04-15T11:26:58;21.00;47.30
28374;DHT22;15616;40.148;-102.718;2023-04-15T11:29:28;21.00;47.30
28374;DHT22;15616;40.148;-102.718;2023-04-15T11:32:00;21.00;47.20
28374;DHT22;15616;40.148;-102.718;2023-04-15T11:34:26;21.00;47.20
28374;DHT22;15616;40.148;-102.718;2023-04-15T11:36:52;21.00;47.20
28374;DHT22;15616;40.148;-102.718;2023-04-15T11:39:21;21.10;47.20
28374;DHT22;15616;40.148;-102.718;2023-04-15T11:41:47;21.10;47.20
28374;DHT22;15616;40.148;-102.718;2023-04-15T11:44:16;21.10;47.20
28374;DHT22;15616;40.148;-102.718;2023-04-15T11:46:42;21.10;47.10
28374;DHT22;15616;40.148;-102.718;2023-04-15T11:49:08;21.10;47.10
28374;DHT22;15616;40.148;-102.718;2023-04-15T11:51:34;21.10;47.10
28374;DHT22;15616;40.148;-102.718;2023-04-15T11:53:59;21.10;47.10
28374;DHT22;15616;40.148;-102.718;2023-04-15T11:56:25;21.10;47.10
28374;DHT22;15616;40.148;-102.718;2023-04-15T11:58:55;21.10;47.10
28374;DHT22;15616;40.148;-102.718;2023-04-15T12:01:35;21.10;47.00
28374;DHT22;15616;40.148;-102.718;2023-04-15T12:04:01;21.10;47.10
28374;DHT22;15616;40.148;-102.718;2023-04-15T12:06:31;21.10;47.10
28374;DHT22;15616;40.148;-102.718;2023-04-15T12:09:09;21.10;47.10
28374;DHT22;15616;40.148;-102.718;2023-04-15T12:11:50;21.10;47.10
28374;DHT22;15616;40.148;-102.718;2023-04-15T12:14:19;21.10;47.00
28374;DHT22;15616;40.148;-102.718;2023-04-15T12:16:47;21.10;47.00
28374;DHT22;15616;40.148;-102.718;2023-04-15T12:19:14;21.10;47.00
28374;DHT22;15616;40.148;-102.718;2023-04-15T12:21:42;21.10;47.70
28374;DHT22;15616;40.148;-102.718;2023-04-15T12:24:09;21.10;47.00
28374;DHT22;15616;40.148;-102.718;2023-04-15T12:26:42;21.20;47.10
28374;DHT22;15616;40.148;-102.718;2023-04-15T12:29:09;21.20;47.10
28374;DHT22;15616;40.148;-102.718;2023-04-15T12:31:34;21.20;47.10
28374;DHT22;15616;40.148;-102.718;2023-04-15T12:34:05;21.20;47.00
28374;DHT22;15616;40.148;-102.718;2023-04-15T12:36:32;21.20;47.80
28374;DHT22;15616;40.148;-102.718;2023-04-15T12:39:03;21.20;47.10
28374;DHT22;15616;40.148;-102.718;2023-04-15T12:41:30;21.20;47.10
28374;DHT22;15616;40.148;-102.718;2023-04-15T12:43:56;21.20;47.10
28374;DHT22;15616;40.148;-102.718;2023-04-15T12:46:22;21.20;47.00
28374;DHT22;15616;40.148;-102.718;2023-04-15T12:48:48;21.20;47.00
28374;DHT22;15616;40.148;-102.718;2023-04-15T12:51:14;21.20;47.00
28374;DHT22;15616;40.148;-102.718;2023-04-15T12:53:40;21.20;47.00
28374;DHT22;15616;40.148;-102.718;2023-04-15T12:56:06;21.20;47.00
28374;DHT22;15616;40.148;-102.718;2023-04-15T12:58:32;21.20;46.90
28374;DHT22;15616;40.148;-102.718;2023-04-15T13:00:57;21.20;46.90
28374;DHT22;15616;40.148;-102.718;2023-04-15T13:03:23;21.20;46.90
28374;DHT22;15616;40.148;-102.718;2023-04-15T13:05:49;21.20;46.90
28374;DHT22;15616;40.148;-102.718;2023-04-15T13:08:15;21.20;46.90
28374;DHT22;15616;40.148;-102.718;2023-04-15T13:10:41;21.30;47.00
28374;DHT22;15616;40.148;-102.718;2023-04-15T13:13:07;21.30;47.00
28374;DHT22;15616;40.148;-102.718;2023-04-15T13:15:33;21.20;46.90
28374;DHT22;15616;40.148;-102.718;2023-04-15T13:17:58;21.20;46.90
28374;DHT22;15616;40.148;-102.718;2023-04-15T13:20:24;21.30;47.00
28374;DHT22;15616;40.148;-102.718;2023-04-15T13:22:51;21.30;47.00
28374;DHT22;15616;40.148;-102.718;2023-04-15T13:25:17;21.30;46.90
28374;DHT22;15616;40.148;-102.718;2023-04-15T13:27:43;21.30;46.90
28374;DHT22;15616;40.148;-102.718;2023-04-15T13:30:09;21.30;46.90
28374;DHT22;15616;40.148;-102.718;2023-04-15T13:32:34;21.30;46.90
28374;DHT22;15616;40.148;-102.718;2023-04-15T13:35:00;21.30;46.90
28374;DHT22;15616;40.148;-102.718;2023-04-15T13:37:26;21.30;46.90
28374;DHT22;15616;40.148;-102.718;2023-04-15T13:39:53;21.30;46.90
28374;DHT22;15616;40.148;-102.718;2023-04-15T13:42:18;21.30;46.90
28374;DHT22;15616;40.148;-102.718;2023-04-15T13:44:44;21.30;46.80
28374;DHT22;15616;40.148;-102.718;2023-04-15T13:47:10;21.30;46.90
28374;DHT22;15616;40.148;-102.718;2023-04-15T13:49:35;21.30;46.90
28374;DHT22;15616;40.148;-102.718;2023-04-15T13:52:01;21.30;46.90
28374;DHT22;15616;40.148;-102.718;2023-04-15T13:54:27;21.30;46.90
28374;DHT22;15616;40.148;-102.718;2023-04-15T13:56:53;21.30;46.90
28374;DHT22;15616;40.148;-102.718;2023-04-15T13:59:20;21.40;46.90
28374;DHT22;15616;40.148;-102.718;2023-04-15T14:01:46;21.30;46.90
28374;DHT22;15616;40.148;-102.718;2023-04-15T14:04:12;21.30;47.00
28374;DHT22;15616;40.148;-102.718;2023-04-15T14:06:38;21.30;47.10
28374;DHT22;15616;40.148;-102.718;2023-04-15T14:09:04;21.20;47.10
28374;DHT22;15616;40.148;-102.718;2023-04-15T14:11:29;21.30;47.10
28374;DHT22;15616;40.148;-102.718;2023-04-15T14:13:55;21.30;47.10
28374;DHT22;15616;40.148;-102.718;2023-04-15T14:16:21;21.30;47.10
28374;DHT22;15616;40.148;-102.718;2023-04-15T14:18:47;21.30;47.10
28374;DHT22;15616;40.148;-102.718;2023-04-15T14:21:13;21.30;47.10
28374;DHT22;15616;40.148;-102.718;2023-04-15T14:23:39;21.30;47.00
28374;DHT22;15616;40.148;-102.718;2023-04-15T14:26:05;21.30;47.00
28374;DHT22;15616;40.148;-102.718;2023-04-15T14:28:31;21.40;47.10
28374;DHT22;15616;40.148;-102.718;2023-04-15T14:30:57;21.40;47.00
28374;DHT22;15616;40.148;-102.718;2023-04-15T14:33:22;21.40;47.00
28374;DHT22;15616;40.148;-102.718;2023-04-15T14:35:49;21.40;47.00
28374;DHT22;15616;40.148;-102.718;2023-04-15T14:38:15;21.40;46.90
28374;DHT22;15616;40.148;-102.718;2023-04-15T14:40:41;21.50;46.90
28374;DHT22;15616;40.148;-102.718;2023-04-15T14:43:07;21.70;46.90
28374;DHT22;15616;40.148;-102.718;2023-04-15T14:45:32;22.00;46.70